Time;durP1;ratioP1;P1;durP2;ratioP2;P2;SDS_P1;SDS_P2;PMS_P1;PMS_P2;Temp;Humidity;BMP_temperature;BMP_pressure;BME280_temperature;BME280_humidity;BME280_pressure;Samples;Min_cycle;Max_cycle;Signal;HPM_P1;HPM_P2
2023/04/17 00:02:03;;;;;;;9.40;3.50;;;;;;;14.06;58.66;101757.02;106367;1264;24364;-54
2023/04/17 00:04:32;;;;;;;7.00;3.40;;;;;;;14.06;58.76;101753.35;106598;1274;25486;-54
2023/04/17 00:07:02;;;;;;;7.50;3.20;;;;;;;14.09;58.89;101753.30;106664;1273;25348;-53
2023/04/17 00:09:31;;;;;;;12.50;3.80;;;;;;;14.11;58.84;101747.83;106371;1274;25290;-54
2023/04/17 00:11:59;;;;;;;10.20;2.90;;;;;;;14.10;58.71;101744.89;106363;1273;22736;-54
2023/04/17 00:14:28;;;;;;;7.70;3.50;;;;;;;14.10;58.58;101742.46;106373;1276;24286;-54
2023/04/17 00:16:56;;;;;;;10.50;3.30;;;;;;;14.13;58.57;101743.61;106287;1280;25434;-54
2023/04/17 00:19:25;;;;;;;7.80;3.20;;;;;;;14.14;58.71;101744.63;106635;1273;25348;-54
2023/04/17 00:21:53;;;;;;;8.40;3.30;;;;;;;14.14;58.79;101745.51;106335;1273;25451;-54
2023/04/17 00:24:22;;;;;;;7.30;2.90;;;;;;;14.13;58.71;101741.69;106643;1273;25450;-54
2023/04/17 00:26:50;;;;;;;3.60;2.40;;;;;;;14.12;58.68;101743.11;106759;1273;25418;-54
2023/04/17 00:29:19;;;;;;;6.30;2.10;;;;;;;14.10;58.53;101747.16;106680;1274;25389;-54
2023/04/17 00:31:47;;;;;;;6.30;2.40;;;;;;;14.08;58.43;101744.41;106331;1274;22542;-54
2023/04/17 00:34:16;;;;;;;5.60;2.50;;;;;;;14.07;58.36;101748.09;106750;1273;24347;-54
2023/04/17 00:36:44;;;;;;;6.20;2.80;;;;;;;14.07;58.35;101748.79;106663;1276;26688;-53
2023/04/17 00:39:13;;;;;;;8.10;2.70;;;;;;;14.08;58.30;101751.05;106417;1273;24338;-54
2023/04/17 00:41:42;;;;;;;6.40;2.80;;;;;;;14.06;58.13;101748.65;106663;1273;25420;-54
2023/04/17 00:44:10;;;;;;;7.20;2.50;;;;;;;14.05;58.14;101749.89;106760;1273;25529;-54
2023/04/17 00:46:39;;;;;;;5.90;2.40;;;;;;;14.04;58.11;101750.59;106434;1280;25348;-54
2023/04/17 00:49:08;;;;;;;4.40;2.50;;;;;;;14.05;58.01;101749.38;106634;1273;22594;-54
2023/04/17 00:51:37;;;;;;;6.00;2.50;;;;;;;14.05;57.94;101741.86;106422;1278;22526;-54
2023/04/17 00:54:05;;;;;;;9.00;3.30;;;;;;;14.04;57.80;101740.15;106707;1273;22529;-54
2023/04/17 00:56:35;;;;;;;5.50;2.50;;;;;;;14.02;57.62;101743.33;106545;1278;25348;-54
2023/04/17 00:59:03;;;;;;;12.30;3.10;;;;;;;13.99;57.47;101746.17;106577;1273;24210;-54
2023/04/17 01:01:32;;;;;;;9.70;3.20;;;;;;;13.97;57.37;101747.27;106334;1273;25444;-53
2023/04/17 01:04:00;;;;;;;7.60;2.50;;;;;;;13.95;57.15;101748.16;106382;1273;25325;-53
2023/04/17 01:06:30;;;;;;;7.10;2.60;;;;;;;13.93;56.93;101748.55;106660;1273;22609;-54
2023/04/17 01:08:59;;;;;;;9.70;2.60;;;;;;;13.91;56.66;101748.59;106655;1273;24244;-54
2023/04/17 01:11:28;;;;;;;10.00;3.00;;;;;;;13.90;56.58;101748.61;106897;1270;22533;-54
2023/04/17 01:13:57;;;;;;;10.10;4.30;;;;;;;13.88;56.78;101751.08;106856;1269;25413;-53
2023/04/17 01:16:26;;;;;;;7.60;2.70;;;;;;;13.86;56.97;101749.38;106829;1268;25335;-53
2023/04/17 01:18:55;;;;;;;7.90;2.30;;;;;;;13.84;56.83;101749.95;106734;1276;22530;-54
2023/04/17 01:21:26;;;;;;;10.70;2.60;;;;;;;13.81;56.66;101745.13;106826;1268;22526;-54
2023/04/17 01:23:59;;;;;;;5.90;2.40;;;;;;;13.77;56.58;101744.33;106864;1255;24257;-54
2023/04/17 01:26:30;;;;;;;6.40;2.70;;;;;;;13.75;56.63;101741.92;106800;1269;25498;-53
2023/04/17 01:28:59;;;;;;;7.90;2.40;;;;;;;13.75;56.58;101745.59;106940;1254;25570;-54
2023/04/17 01:31:29;;;;;;;8.00;2.70;;;;;;;13.74;56.38;101741.96;106797;1270;24278;-54
2023/04/17 01:33:59;;;;;;;6.00;2.10;;;;;;;13.73;56.23;101740.74;106654;1270;24224;-54
2023/04/17 01:36:28;;;;;;;4.30;2.30;;;;;;;13.72;56.03;101741.63;106829;1257;22525;-53
2023/04/17 01:38:56;;;;;;;5.60;2.20;;;;;;;13.72;55.97;101741.83;106836;1268;22531;-54
2023/04/17 01:41:24;;;;;;;5.90;2.10;;;;;;;13.71;55.94;101739.73;106801;1269;25533;-54
2023/04/17 01:43:53;;;;;;;4.40;2.60;;;;;;;13.72;55.78;101737.64;106801;1273;25342;-53
2023/04/17 01:46:21;;;;;;;5.40;2.00;;;;;;;13.72;55.74;101738.86;106817;1273;25345;-54
2023/04/17 01:48:50;;;;;;;5.50;2.10;;;;;;;13.72;55.66;101732.23;106855;1269;24292;-54
2023/04/17 01:51:19;;;;;;;8.00;2.40;;;;;;;13.74;55.77;101738.98;106857;1272;22522;-54
2023/04/17 01:53:49;;;;;;;5.80;2.40;;;;;;;13.76;55.71;101740.87;106736;1274;24219;-54
2023/04/17 01:56:17;;;;;;;5.90;2.30;;;;;;;13.79;55.71;101745.17;106809;1268;25325;-54
2023/04/17 01:58:46;;;;;;;6.10;2.40;;;;;;;13.75;55.84;101742.46;106818;1268;25393;-54
2023/04/17 02:01:15;;;;;;;6.30;2.10;;;;;;;13.74;55.98;101739.52;106862;1256;25386;-54
2023/04/17 02:03:43;;;;;;;8.50;2.50;;;;;;;13.74;56.04;101738.48;106880;1268;25419;-54
2023/04/17 02:06:12;;;;;;;6.30;2.10;;;;;;;13.73;55.87;101737.08;106832;1268;25383;-54
2023/04/17 02:08:40;;;;;;;2.70;1.70;;;;;;;13.72;55.89;101736.77;106825;1269;22527;-53
2023/04/17 02:11:09;;;;;;;8.30;2.20;;;;;;;13.70;55.75;101737.14;106719;1269;25353;-54
2023/04/17 02:13:37;;;;;;;7.80;2.60;;;;;;;13.68;55.75;101737.02;106623;1269;24239;-54
2023/04/17 02:16:06;;;;;;;5.90;2.10;;;;;;;13.67;55.63;101741.22;106892;1268;25807;-54
2023/04/17 02:18:35;;;;;;;6.90;2.60;;;;;;;13.67;55.59;101743.31;106876;1269;25538;-54
2023/04/17 02:21:04;;;;;;;3.50;1.90;;;;;;;13.66;55.26;101745.42;106804;1268;24292;-54
2023/04/17 02:23:35;;;;;;;;;;;;;;;13.65;55.00;101748.40;106887;1270;25322;-54
2023/04/17 02:26:04;;;;;;;4.10;2.10;;;;;;;13.64;54.99;101747.38;106832;1268;25351;-54
2023/04/17 02:28:33;;;;;;;5.60;2.30;;;;;;;13.66;55.00;101747.88;106792;1268;24397;-54
2023/04/17 02:31:07;;;;;;;7.90;2.40;;;;;;;13.65;54.99;101750.33;106865;1268;22524;-54
2023/04/17 02:37:01;;;;;;;6.80;2.50;;;;;;;13.64;55.17;101752.44;103810;1298;545766;-54
2023/04/17 02:39:30;;;;;;;5.60;2.80;;;;;;;13.62;55.17;101756.48;106220;1282;22561;-53
2023/04/17 02:42:00;;;;;;;5.10;2.00;;;;;;;13.61;55.47;101761.02;106153;1280;25352;-53
2023/04/17 02:44:29;;;;;;;5.70;2.60;;;;;;;13.61;55.75;101765.39;106117;1281;25321;-53
2023/04/17 02:46:58;;;;;;;5.30;2.10;;;;;;;13.60;55.41;101762.96;105908;1281;22567;-54
2023/04/17 02:49:27;;;;;;;7.30;2.40;;;;;;;13.60;55.06;101763.67;106129;1280;25352;-54
2023/04/17 02:51:56;;;;;;;8.30;2.50;;;;;;;13.60;54.93;101764.54;106013;1279;24693;-54
2023/04/17 02:54:24;;;;;;;6.50;2.50;;;;;;;13.60;54.85;101766.81;106321;1280;25355;-54
2023/04/17 02:56:57;;;;;;;7.00;2.00;;;;;;;13.60;54.87;101765.75;106403;1278;25437;-54
2023/04/17 02:59:25;;;;;;;8.60;2.70;;;;;;;13.61;54.69;101771.32;106329;1278;24220;-54
2023/04/17 03:01:58;;;;;;;6.00;2.10;;;;;;;13.61;54.64;101777.43;105924;1278;25493;-54
2023/04/17 03:04:27;;;;;;;6.60;2.40;;;;;;;13.60;54.60;101778.84;106054;1286;22532;-54
2023/04/17 03:06:55;;;;;;;13.40;3.70;;;;;;;13.58;54.60;101786.19;106249;1279;25536;-54
2023/04/17 03:09:24;;;;;;;7.00;2.60;;;;;;;13.58;54.53;101791.27;106385;1279;25359;-54
2023/04/17 03:11:53;;;;;;;6.30;2.10;;;;;;;13.58;54.64;101792.83;106326;1279;22530;-54
2023/04/17 03:14:22;;;;;;;5.00;2.40;;;;;;;13.57;54.73;101792.84;106385;1276;25522;-54
2023/04/17 03:16:50;;;;;;;8.90;2.70;;;;;;;13.56;54.82;101796.50;106491;1275;24325;-54
2023/04/17 03:19:19;;;;;;;7.40;2.50;;;;;;;13.57;54.95;101800.68;106201;1275;22657;-54
2023/04/17 03:21:47;;;;;;;8.30;2.70;;;;;;;13.56;55.04;101802.80;106406;1280;25439;-54
2023/04/17 03:24:15;;;;;;;7.50;2.50;;;;;;;13.55;55.05;101804.91;106434;1276;25414;-54
2023/04/17 03:26:44;;;;;;;5.70;2.30;;;;;;;13.55;55.05;101804.38;106045;1276;25369;-54
2023/04/17 03:29:16;;;;;;;;;;;;;;;13.55;55.30;101808.20;106435;1274;25445;-54
2023/04/17 03:31:44;;;;;;;5.80;2.40;;;;;;;13.56;55.51;101813.08;106463;1275;25444;-54
2023/04/17 03:34:12;;;;;;;5.40;2.30;;;;;;;13.57;55.69;101812.18;106438;1276;25370;-54
2023/04/17 03:36:41;;;;;;;7.80;2.50;;;;;;;13.58;55.39;101813.40;106942;1266;25382;-53
2023/04/17 03:39:10;;;;;;;6.60;2.30;;;;;;;13.58;55.06;101814.10;107133;1266;26984;-53
2023/04/17 03:41:39;;;;;;;9.40;2.70;;;;;;;13.57;54.82;101814.80;107027;1267;24402;-53
2023/04/17 03:44:08;;;;;;;5.50;2.40;;;;;;;13.55;54.73;101810.84;106908;1266;24224;-55
2023/04/17 03:46:37;;;;;;;11.40;2.90;;;;;;;13.53;54.31;101813.83;106151;1272;1003020;-54
2023/04/17 03:49:05;;;;;;;11.60;2.90;;;;;;;13.51;54.36;101809.67;107036;1271;24245;-54
2023/04/17 03:51:34;;;;;;;5.20;2.40;;;;;;;13.49;54.48;101810.05;106191;1267;1003623;-54
2023/04/17 03:54:09;;;;;;;6.90;2.40;;;;;;;13.48;54.47;101811.11;107058;1267;25401;-54
2023/04/17 03:56:39;;;;;;;6.90;2.30;;;;;;;13.46;54.56;101810.28;107049;1268;25383;-54
2023/04/17 03:59:08;;;;;;;8.40;2.70;;;;;;;13.45;54.38;101806.98;106153;1271;1003713;-54
2023/04/17 04:01:41;;;;;;;4.20;2.00;;;;;;;13.43;54.10;101803.20;106881;1271;25390;-53
2023/04/17 04:04:21;;;;;;;5.40;2.20;;;;;;;13.43;54.31;101799.87;106984;1267;22488;-54
2023/04/17 04:06:56;;;;;;;5.60;2.10;;;;;;;13.43;54.54;101798.30;107043;1268;25341;-53
2023/04/17 04:09:26;;;;;;;7.00;2.60;;;;;;;13.44;54.31;101798.48;107113;1268;22647;-53
2023/04/17 04:11:56;;;;;;;6.00;2.30;;;;;;;13.47;54.24;101797.54;106950;1267;26516;-53
2023/04/17 04:14:24;;;;;;;9.80;2.60;;;;;;;13.49;53.84;101798.21;106813;1253;24532;-53
2023/04/17 04:16:53;;;;;;;7.60;3.10;;;;;;;13.48;53.59;101798.58;106992;1267;22523;-53
2023/04/17 04:19:22;;;;;;;5.60;1.80;;;;;;;13.47;53.36;101794.40;107002;1269;24458;-54
2023/04/17 04:21:52;;;;;;;6.00;2.20;;;;;;;13.46;53.57;101789.20;106885;1272;22527;-53
2023/04/17 04:24:22;;;;;;;4.30;2.20;;;;;;;13.44;54.00;101788.34;107116;1268;25371;-53
2023/04/17 04:26:50;;;;;;;3.30;2.20;;;;;;;13.44;54.43;101784.52;106814;1269;25357;-54
2023/04/17 04:29:24;;;;;;;4.40;2.30;;;;;;;13.44;54.75;101782.08;106818;1271;25498;-54
2023/04/17 04:31:58;;;;;;;7.10;2.10;;;;;;;13.45;54.97;101780.14;107053;1268;25362;-54
2023/04/17 04:34:30;;;;;;;5.80;2.90;;;;;;;13.45;55.02;101777.88;107046;1268;25366;-53
2023/04/17 04:37:00;;;;;;;4.30;2.60;;;;;;;13.45;55.22;101770.05;105919;1274;1003693;-53
2023/04/17 04:39:36;;;;;;;3.90;2.30;;;;;;;13.44;55.27;101767.43;106938;1268;25398;-54
2023/04/17 04:42:08;;;;;;;7.00;2.30;;;;;;;13.45;55.12;101765.16;107072;1255;24193;-53
2023/04/17 04:44:57;;;;;;;4.80;2.10;;;;;;;13.44;55.03;101762.39;106418;1275;25373;-53
2023/04/17 04:47:28;;;;;;;6.90;2.50;;;;;;;13.42;55.18;101755.27;107130;1268;25523;-54
2023/04/17 04:49:57;;;;;;;5.70;2.30;;;;;;;13.41;55.15;101757.21;107003;1271;22516;-53
2023/04/17 04:52:25;;;;;;;4.30;2.10;;;;;;;13.40;55.23;101757.05;107021;1268;24219;-53
2023/04/17 04:54:56;;;;;;;3.70;1.80;;;;;;;13.40;55.11;101758.27;107099;1268;25515;-53
2023/04/17 04:57:25;;;;;;;4.40;2.10;;;;;;;13.40;54.87;101759.49;106878;1267;25334;-53
2023/04/17 04:59:56;;;;;;;7.30;2.40;;;;;;;13.38;54.82;101761.63;106850;1267;24297;-53
2023/04/17 05:02:32;;;;;;;5.00;2.30;;;;;;;13.38;54.99;101759.70;106793;1267;25351;-53
2023/04/17 05:05:01;;;;;;;3.40;1.90;;;;;;;13.38;54.93;101760.41;107101;1267;22721;-54
2023/04/17 05:07:31;;;;;;;7.20;2.60;;;;;;;13.37;54.87;101756.95;106796;1275;22523;-54
2023/04/17 05:10:00;;;;;;;7.50;2.00;;;;;;;13.35;54.66;101756.28;106844;1271;25328;-54
2023/04/17 05:12:31;;;;;;;6.10;2.70;;;;;;;13.34;54.73;101756.63;106964;1268;25359;-54
2023/04/17 05:15:00;;;;;;;5.00;2.50;;;;;;;13.34;54.51;101754.02;106842;1271;22617;-54
2023/04/17 05:17:29;;;;;;;7.60;2.60;;;;;;;13.35;54.49;101750.86;107135;1267;25341;-54
2023/04/17 05:19:58;;;;;;;6.50;2.50;;;;;;;13.33;54.66;101749.70;106850;1267;25370;-54
2023/04/17 05:22:29;;;;;;;4.60;2.40;;;;;;;13.31;54.85;101745.54;106836;1273;22643;-54
2023/04/17 05:25:03;;;;;;;6.40;2.10;;;;;;;13.30;54.88;101743.80;106771;1273;22536;-55
2023/04/17 05:27:32;;;;;;;5.60;2.40;;;;;;;13.26;54.46;101734.48;106847;1267;22615;-53
2023/04/17 05:30:01;;;;;;;5.20;2.10;;;;;;;13.24;54.65;101732.23;106957;1267;25407;-54
2023/04/17 05:32:31;;;;;;;4.00;1.70;;;;;;;13.23;54.65;101736.95;106935;1269;25037;-54
2023/04/17 05:35:07;;;;;;;7.80;2.90;;;;;;;13.20;54.59;101735.09;106833;1271;23907;-53
2023/04/17 05:37:36;;;;;;;7.50;2.40;;;;;;;13.19;54.36;101728.14;106991;1269;22645;-53
2023/04/17 05:40:06;;;;;;;6.10;2.00;;;;;;;13.24;54.40;101731.55;107041;1268;25334;-54
2023/04/17 05:42:34;;;;;;;6.80;3.00;;;;;;;13.25;54.45;101733.96;106647;1264;24209;-54
2023/04/17 05:45:04;;;;;;;3.00;1.90;;;;;;;13.26;54.51;101738.14;106903;1267;25360;-53
2023/04/17 05:47:32;;;;;;;4.80;2.20;;;;;;;13.26;54.46;101737.61;106837;1253;23895;-54
2023/04/17 05:50:01;;;;;;;4.30;2.20;;;;;;;13.25;54.40;101740.76;107012;1268;25246;-54
2023/04/17 05:52:30;;;;;;;8.80;2.50;;;;;;;13.26;54.42;101738.83;106114;1271;1003464;-54
2023/04/17 05:54:59;;;;;;;5.90;2.50;;;;;;;13.24;54.40;101744.79;106899;1269;25411;-54
2023/04/17 05:57:28;;;;;;;8.00;2.20;;;;;;;13.24;54.50;101749.48;107000;1267;24361;-54
2023/04/17 05:59:57;;;;;;;6.10;2.20;;;;;;;13.25;54.25;101748.95;107085;1268;22537;-54
2023/04/17 06:02:26;;;;;;;7.70;2.10;;;;;;;13.25;54.20;101749.98;106791;1273;25479;-54
2023/04/17 06:04:57;;;;;;;6.10;2.10;;;;;;;13.26;54.40;101743.35;107034;1270;25355;-53
2023/04/17 06:07:26;;;;;;;3.40;1.80;;;;;;;13.28;54.33;101744.18;107095;1253;22642;-53
2023/04/17 06:09:55;;;;;;;4.70;2.10;;;;;;;13.29;54.16;101742.09;107002;1267;25291;-53
2023/04/17 06:12:23;;;;;;;4.10;2.00;;;;;;;13.30;54.14;101742.23;107141;1268;22647;-54
2023/04/17 06:14:53;;;;;;;4.50;2.00;;;;;;;13.31;53.79;101737.01;107055;1267;24394;-53
2023/04/17 06:17:22;;;;;;;4.50;2.20;;;;;;;13.32;53.74;101732.98;106889;1269;25369;-54
2023/04/17 06:19:51;;;;;;;4.90;2.10;;;;;;;13.34;53.73;101735.38;107037;1267;25410;-53
2023/04/17 06:22:19;;;;;;;6.60;2.30;;;;;;;13.35;53.64;101733.97;106994;1268;22589;-53
2023/04/17 06:24:48;;;;;;;3.20;2.10;;;;;;;13.36;53.44;101739.17;107015;1269;24175;-53
2023/04/17 06:27:16;;;;;;;9.30;2.50;;;;;;;13.38;53.34;101739.83;106850;1271;25526;-53
2023/04/17 06:29:45;;;;;;;6.10;2.10;;;;;;;13.41;53.44;101744.13;106191;1272;1002937;-53
2023/04/17 06:32:14;;;;;;;4.60;1.90;;;;;;;13.44;53.58;101743.73;107014;1268;25426;-53
2023/04/17 06:34:43;;;;;;;3.60;2.10;;;;;;;13.48;53.33;101745.58;107028;1268;22532;-53
2023/04/17 06:37:37;;;;;;;5.00;2.30;;;;;;;13.52;53.16;101743.75;106993;1268;25345;-53
2023/04/17 06:40:08;;;;;;;5.30;2.10;;;;;;;13.57;53.04;101735.66;107156;1269;22643;-54
2023/04/17 06:42:37;;;;;;;8.10;2.50;;;;;;;13.63;52.76;101732.77;106893;1268;25370;-53
2023/04/17 06:45:07;;;;;;;6.00;2.10;;;;;;;13.65;52.60;101732.53;106839;1272;22529;-53
2023/04/17 06:47:36;;;;;;;5.30;2.80;;;;;;;13.65;52.62;101728.36;106872;1252;24405;-53
2023/04/17 06:50:07;;;;;;;5.00;2.10;;;;;;;13.68;52.45;101730.91;106799;1275;22647;-53
2023/04/17 06:52:36;;;;;;;4.80;2.00;;;;;;;13.70;52.40;101733.15;107015;1256;25520;-53
2023/04/17 06:55:05;;;;;;;4.00;2.20;;;;;;;13.72;52.44;101730.48;107028;1268;22531;-53
2023/04/17 06:57:33;;;;;;;6.50;2.40;;;;;;;13.73;52.18;101719.65;107123;1260;22573;-53
2023/04/17 07:00:02;;;;;;;5.00;2.10;;;;;;;13.72;52.14;101725.61;107075;1268;25248;-54
2023/04/17 07:02:31;;;;;;;3.20;1.90;;;;;;;13.70;51.95;101726.33;106809;1267;22724;-54
2023/04/17 07:05:01;;;;;;;5.30;2.80;;;;;;;13.67;51.97;101726.23;107033;1267;25390;-54
2023/04/17 07:07:30;;;;;;;3.50;2.10;;;;;;;13.64;51.98;101728.02;106982;1259;22524;-54
2023/04/17 07:09:58;;;;;;;4.80;2.10;;;;;;;13.61;51.83;101729.14;106848;1274;25419;-54
2023/04/17 07:12:26;;;;;;;5.60;2.40;;;;;;;13.59;51.85;101729.34;107032;1267;25342;-54
2023/04/17 07:14:55;;;;;;;4.70;2.40;;;;;;;13.57;51.90;101728.86;107157;1267;22523;-54
2023/04/17 07:17:23;;;;;;;3.50;2.00;;;;;;;13.54;51.80;101717.93;107027;1268;25345;-55
2023/04/17 07:19:52;;;;;;;3.60;2.50;;;;;;;13.50;52.05;101719.05;107014;1268;22537;-53
2023/04/17 07:22:21;;;;;;;5.40;2.40;;;;;;;13.48;52.53;101715.24;107099;1268;25402;-53
2023/04/17 07:24:52;;;;;;;5.90;2.40;;;;;;;13.49;52.25;101711.23;107147;1268;24253;-53
2023/04/17 07:27:20;;;;;;;11.10;2.40;;;;;;;13.43;52.10;101712.91;106747;1271;22650;-53
2023/04/17 07:29:53;;;;;;;5.30;2.20;;;;;;;13.40;52.34;101726.73;106816;1275;22661;-53
2023/04/17 07:32:24;;;;;;;5.90;2.60;;;;;;;13.39;52.55;101725.88;106306;1261;1002863;-53
2023/04/17 07:34:53;;;;;;;5.50;2.20;;;;;;;13.41;52.71;101720.60;107075;1269;24247;-53
2023/04/17 07:37:21;;;;;;;4.40;2.00;;;;;;;13.43;52.58;101714.98;107081;1269;24612;-52
2023/04/17 07:39:51;;;;;;;7.50;2.80;;;;;;;13.45;52.57;101709.20;106869;1269;25369;-53
2023/04/17 07:42:20;;;;;;;8.10;2.30;;;;;;;13.48;52.41;101696.25;107052;1268;25359;-53
2023/04/17 07:44:48;;;;;;;5.60;2.20;;;;;;;13.50;52.24;101692.89;107044;1268;22524;-55
2023/04/17 07:47:17;;;;;;;7.80;3.40;;;;;;;13.52;52.13;101692.68;107073;1267;25373;-54
2023/04/17 07:49:47;;;;;;;7.00;3.80;;;;;;;13.55;52.52;101695.59;106775;1267;22523;-53
2023/04/17 07:52:16;;;;;;;7.80;3.80;;;;;;;13.64;52.61;101698.39;107095;1267;22536;-53
2023/04/17 07:54:45;;;;;;;9.10;2.70;;;;;;;13.74;52.10;101707.60;107016;1269;22632;-54
2023/04/17 07:57:14;;;;;;;5.60;2.60;;;;;;;13.82;51.60;101701.34;107057;1268;22542;-53
2023/04/17 07:59:43;;;;;;;7.20;3.10;;;;;;;13.86;51.31;101696.20;107046;1268;25353;-53
2023/04/17 08:02:11;;;;;;;7.40;2.60;;;;;;;13.92;51.42;101685.08;107107;1269;25237;-53
2023/04/17 08:04:40;;;;;;;8.60;2.60;;;;;;;14.00;51.11;101683.02;107024;1267;25549;-53
2023/04/17 08:07:10;;;;;;;3.90;2.20;;;;;;;14.06;50.74;101686.88;106741;1268;22527;-53
2023/04/17 08:09:39;;;;;;;6.40;2.10;;;;;;;14.12;50.60;101686.92;106898;1268;22539;-53
2023/04/17 08:12:10;;;;;;;;;;;;;;;14.21;50.69;101690.05;107089;1269;24973;-53
2023/04/17 08:14:39;;;;;;;3.70;2.40;;;;;;;14.27;50.60;101693.40;107049;1267;22577;-54
2023/04/17 08:17:08;;;;;;;3.00;2.00;;;;;;;14.32;50.39;101698.56;107043;1269;24215;-53
2023/04/17 08:19:36;;;;;;;7.00;2.70;;;;;;;14.38;50.17;101698.42;107007;1271;24216;-53
2023/04/17 08:22:06;;;;;;;8.00;2.40;;;;;;;14.42;50.06;101702.87;107064;1263;25328;-54
2023/04/17 08:24:34;;;;;;;6.50;2.50;;;;;;;14.47;50.00;101712.20;106999;1267;25370;-54
2023/04/17 08:27:04;;;;;;;8.30;2.20;;;;;;;14.52;49.94;101714.86;107065;1252;22615;-53
2023/04/17 08:29:32;;;;;;;6.60;2.60;;;;;;;14.58;49.80;101711.05;107002;1268;25301;-54
2023/04/17 08:32:00;;;;;;;7.00;3.10;;;;;;;14.61;49.73;101703.13;106939;1268;22523;-54
2023/04/17 08:34:43;;;;;;;4.60;2.10;;;;;;;14.64;49.55;101701.66;107056;1267;26832;-53
2023/04/17 08:37:11;;;;;;;4.60;2.00;;;;;;;14.63;49.47;101702.02;107032;1271;22526;-53
2023/04/17 08:39:40;;;;;;;4.90;1.80;;;;;;;14.65;49.67;101706.17;107084;1269;22521;-53
2023/04/17 08:42:13;;;;;;;7.20;2.40;;;;;;;14.68;49.77;101704.35;106877;1269;22570;-54
2023/04/17 08:44:46;;;;;;;3.70;2.00;;;;;;;14.74;49.98;101705.80;107118;1268;25358;-54
2023/04/17 08:47:16;;;;;;;4.90;2.00;;;;;;;14.83;49.64;101704.53;107245;1268;25416;-53
2023/04/17 08:49:46;;;;;;;5.50;2.00;;;;;;;14.89;49.38;101711.02;107086;1269;25429;-53
2023/04/17 08:52:15;;;;;;;3.90;2.00;;;;;;;15.01;49.58;101718.41;106842;1272;25331;-53
2023/04/17 08:54:44;;;;;;;4.50;2.30;;;;;;;15.15;49.39;101725.91;107045;1268;25373;-53
2023/04/17 08:57:12;;;;;;;3.80;1.90;;;;;;;15.28;48.92;101726.63;107051;1274;22533;-54
2023/04/17 08:59:41;;;;;;;5.70;1.90;;;;;;;15.38;48.55;101726.19;106996;1271;25331;-54
2023/04/17 09:02:09;;;;;;;4.80;2.10;;;;;;;15.45;47.96;101726.21;107071;1268;24485;-54
2023/04/17 09:04:43;;;;;;;4.30;2.20;;;;;;;15.49;47.57;101728.40;107153;1269;25342;-54
2023/04/17 09:07:12;;;;;;;5.40;2.20;;;;;;;15.48;47.58;101733.48;106161;1269;1003581;-54
2023/04/17 09:09:55;;;;;;;4.90;2.20;;;;;;;15.50;47.88;101738.14;107085;1271;25237;-53
2023/04/17 09:12:24;;;;;;;4.80;2.00;;;;;;;15.53;47.63;101733.36;106839;1271;25435;-53
2023/04/17 09:14:53;;;;;;;6.90;2.20;;;;;;;15.57;47.57;101729.56;107172;1268;24287;-54
2023/04/17 09:17:21;;;;;;;4.10;1.70;;;;;;;15.60;47.37;101728.08;107043;1269;25346;-53
2023/04/17 09:20:06;;;;;;;6.50;2.50;;;;;;;15.64;46.91;101727.26;106982;1272;25370;-53
2023/04/17 09:22:35;;;;;;;6.70;2.20;;;;;;;15.67;46.61;101728.05;106780;1272;24226;-53
2023/04/17 09:25:16;;;;;;;2.60;1.80;;;;;;;15.64;46.49;101729.19;106990;1269;24192;-53
2023/04/17 09:27:45;;;;;;;7.60;2.00;;;;;;;15.60;46.79;101731.39;107127;1269;22523;-53
2023/04/17 09:30:13;;;;;;;3.60;1.70;;;;;;;15.61;47.00;101723.84;106556;1269;25332;-53
2023/04/17 09:32:42;;;;;;;3.50;1.90;;;;;;;15.69;46.82;101725.58;107105;1268;22693;-53
2023/04/17 09:38:38;;;;;;;3.00;2.10;;;;;;;15.79;45.99;101724.05;103799;1298;545476;-53
2023/04/17 09:41:21;;;;;;;7.90;2.10;;;;;;;15.76;45.88;101729.05;106138;1282;22528;-52
2023/04/17 09:43:52;;;;;;;3.70;2.40;;;;;;;15.74;45.79;101730.33;106072;1282;25436;-53
2023/04/17 09:46:30;;;;;;;4.00;2.10;;;;;;;15.76;46.08;101732.71;106272;1282;25325;-53
2023/04/17 09:49:01;;;;;;;7.00;2.70;;;;;;;15.80;46.20;101726.48;106223;1280;22549;-53
2023/04/17 09:51:30;;;;;;;4.40;2.30;;;;;;;15.83;45.97;101730.75;106077;1279;223478;-53
2023/04/17 09:53:58;;;;;;;4.10;2.20;;;;;;;15.84;45.99;101730.55;106270;1278;23086;-53
2023/04/17 09:56:28;;;;;;;3.90;1.90;;;;;;;15.84;45.87;101729.50;106368;1279;22519;-53
2023/04/17 09:58:57;;;;;;;3.60;2.10;;;;;;;15.84;46.10;101731.27;106283;1279;25354;-54
2023/04/17 10:01:26;;;;;;;4.60;1.80;;;;;;;15.85;46.30;101734.02;106254;1285;24725;-53
2023/04/17 10:03:55;;;;;;;3.80;1.80;;;;;;;15.88;45.98;101736.76;106080;1279;24356;-53
2023/04/17 10:06:25;;;;;;;4.50;1.90;;;;;;;15.87;46.25;101733.61;106366;1278;22555;-53
2023/04/17 10:08:54;;;;;;;3.40;1.80;;;;;;;15.90;46.20;101731.27;106352;1279;25354;-53
2023/04/17 10:11:23;;;;;;;4.20;1.80;;;;;;;15.93;46.05;101733.80;106428;1281;25367;-53
2023/04/17 10:14:15;;;;;;;4.20;1.80;;;;;;;15.96;46.28;101734.95;106039;1282;24356;-53
2023/04/17 10:16:45;;;;;;;6.00;1.90;;;;;;;15.99;46.23;101733.10;105787;1285;25510;-53
2023/04/17 10:19:27;;;;;;;4.90;2.70;;;;;;;15.96;46.19;101730.21;105903;1285;24496;-53
2023/04/17 10:22:14;;;;;;;6.70;2.70;;;;;;;15.96;46.82;101735.46;105784;1285;25676;-53
2023/04/17 10:24:47;;;;;;;9.40;2.20;;;;;;;15.98;46.70;101732.59;105828;1291;25428;-53
2023/04/17 10:27:27;;;;;;;3.80;2.10;;;;;;;15.98;46.52;101729.98;106322;1276;24247;-53
2023/04/17 10:29:56;;;;;;;3.10;1.70;;;;;;;15.99;46.55;101732.05;106344;1278;25353;-53
2023/04/17 10:32:27;;;;;;;4.80;2.40;;;;;;;16.02;46.36;101732.50;106304;1276;25349;-53
2023/04/17 10:34:57;;;;;;;4.40;2.10;;;;;;;16.05;46.00;101736.42;106311;1276;22558;-54
2023/04/17 10:37:51;;;;;;;5.40;1.90;;;;;;;16.07;46.00;101737.05;106403;1278;24230;-53
2023/04/17 10:40:24;;;;;;;4.10;2.30;;;;;;;16.09;45.85;101734.57;106409;1281;24290;-53
2023/04/17 10:43:21;;;;;;;8.20;2.20;;;;;;;16.14;46.08;101733.70;106141;1280;22540;-55
2023/04/17 10:46:03;;;;;;;5.90;2.10;;;;;;;16.21;45.56;101732.64;105541;1281;1003405;-53
2023/04/17 10:48:35;;;;;;;3.50;2.00;;;;;;;16.26;45.79;101732.48;106169;1280;24426;-53
2023/04/17 10:54:01;;;;;;;3.50;2.00;;;;;;;16.43;45.07;101722.70;106435;1270;25533;-53
2023/04/17 10:56:47;;;;;;;5.80;2.90;;;;;;;16.47;44.85;101718.38;106665;1276;24221;-53
2023/04/17 10:59:17;;;;;;;2.70;1.80;;;;;;;16.52;45.17;101714.73;106813;1272;25358;-53
2023/04/17 11:01:51;;;;;;;7.50;2.20;;;;;;;16.59;44.61;101711.56;106630;1278;25403;-53
2023/04/17 11:04:21;;;;;;;4.10;1.70;;;;;;;16.63;43.94;101713.55;106601;1273;24561;-54
2023/04/17 11:06:51;;;;;;;5.70;2.10;;;;;;;16.69;43.84;101709.48;106746;1270;22530;-54
2023/04/17 11:09:21;;;;;;;4.80;2.30;;;;;;;16.73;43.71;101714.27;106853;1275;26699;-54
2023/04/17 11:11:49;;;;;;;3.50;1.90;;;;;;;16.77;44.34;101706.08;106915;1272;22702;-54
2023/04/17 11:14:19;;;;;;;5.60;2.30;;;;;;;16.80;43.88;101705.98;106618;1276;22523;-53
2023/04/17 11:20:16;;;;;;;4.60;1.80;;;;;;;16.77;43.80;101699.73;103624;1292;545483;-53
2023/04/17 11:22:44;;;;;;;4.20;1.90;;;;;;;16.77;43.75;101700.82;105961;1285;22534;-53
2023/04/17 11:25:40;;;;;;;7.00;2.00;;;;;;;16.79;43.63;101694.95;105899;1288;24298;-53
2023/04/17 11:28:08;;;;;;;5.80;2.10;;;;;;;16.81;43.63;101686.66;105608;1288;22561;-53
2023/04/17 11:30:41;;;;;;;4.00;1.70;;;;;;;16.78;43.42;101679.20;105595;1288;25400;-54
2023/04/17 11:33:10;;;;;;;4.20;2.00;;;;;;;16.75;43.79;101678.79;105473;1292;226881;-53
2023/04/17 11:35:40;;;;;;;8.40;2.00;;;;;;;16.76;43.51;101677.54;105791;1285;22546;-53
2023/04/17 11:38:21;;;;;;;6.80;2.30;;;;;;;16.79;43.71;101675.34;105689;1290;22550;-53
2023/04/17 11:40:51;;;;;;;3.80;1.80;;;;;;;16.84;43.29;101666.92;106508;1273;22633;-54
2023/04/17 11:43:21;;;;;;;4.10;2.00;;;;;;;16.85;43.25;101654.98;106468;1275;22530;-54
2023/04/17 11:46:00;;;;;;;4.20;2.00;;;;;;;16.84;43.61;101646.25;106379;1276;22680;-53